sensor_id;sensor_type;location;lat;lon;timestamp;P1;durP1;ratioP1;P2;durP2;ratioP2
10497;SDS011;5296;51.060;13.750;2022-12-18T00:03:11;28.80;;;19.17;;
10497;SDS011;5296;51.060;13.750;2022-12-18T00:08:13;31.10;;;20.13;;
10497;SDS011;5296;51.060;13.750;2022-12-18T00:13:16;26.93;;;18.90;;
10497;SDS011;5296;51.060;13.750;2022-12-18T00:18:17;34.40;;;20.57;;
10497;SDS011;5296;51.060;13.750;2022-12-18T00:23:21;29.90;;;19.00;;
10497;SDS011;5296;51.060;13.750;2022-12-18T00:28:22;31.43;;;19.47;;
10497;SDS011;5296;51.060;13.750;2022-12-18T00:33:24;29.77;;;18.77;;
10497;SDS011;5296;51.060;13.750;2022-12-18T00:38:26;32.23;;;20.07;;
10497;SDS011;5296;51.060;13.750;2022-12-18T00:43:27;28.37;;;18.47;;
10497;SDS011;5296;51.060;13.750;2022-12-18T00:48:29;29.73;;;17.67;;
10497;SDS011;5296;51.060;13.750;2022-12-18T00:53:31;28.20;;;18.77;;
10497;SDS011;5296;51.060;13.750;2022-12-18T00:58:33;30.27;;;18.80;;
10497;SDS011;5296;51.060;13.750;2022-12-18T01:03:36;27.77;;;18.33;;
10497;SDS011;5296;51.060;13.750;2022-12-18T01:08:39;27.07;;;16.83;;
10497;SDS011;5296;51.060;13.750;2022-12-18T01:13:41;28.07;;;18.47;;
10497;SDS011;5296;51.060;13.750;2022-12-18T01:18:43;27.97;;;17.17;;
10497;SDS011;5296;51.060;13.750;2022-12-18T01:23:45;26.53;;;16.77;;
10497;SDS011;5296;51.060;13.750;2022-12-18T01:28:47;27.70;;;18.10;;
10497;SDS011;5296;51.060;13.750;2022-12-18T01:33:50;29.30;;;17.53;;
10497;SDS011;5296;51.060;13.750;2022-12-18T01:38:53;26.00;;;17.73;;
10497;SDS011;5296;51.060;13.750;2022-12-18T01:43:55;23.97;;;15.83;;
10497;SDS011;5296;51.060;13.750;2022-12-18T01:48:59;26.90;;;15.80;;
10497;SDS011;5296;51.060;13.750;2022-12-18T01:54:02;23.13;;;14.03;;
10497;SDS011;5296;51.060;13.750;2022-12-18T01:59:04;23.20;;;14.60;;
10497;SDS011;5296;51.060;13.750;2022-12-18T02:04:24;21.73;;;14.30;;
10497;SDS011;5296;51.060;13.750;2022-12-18T02:09:29;20.37;;;12.87;;
10497;SDS011;5296;51.060;13.750;2022-12-18T02:25:00;17.23;;;12.47;;
10497;SDS011;5296;51.060;13.750;2022-12-18T02:30:06;18.57;;;11.60;;
10497;SDS011;5296;51.060;13.750;2022-12-18T02:35:11;19.57;;;12.07;;
10497;SDS011;5296;51.060;13.750;2022-12-18T02:40:17;18.90;;;12.37;;
10497;SDS011;5296;51.060;13.750;2022-12-18T02:45:19;18.97;;;12.77;;
10497;SDS011;5296;51.060;13.750;2022-12-18T03:00:58;18.77;;;11.63;;
10497;SDS011;5296;51.060;13.750;2022-12-18T03:06:05;17.10;;;11.23;;
10497;SDS011;5296;51.060;13.750;2022-12-18T03:11:12;17.97;;;10.37;;
10497;SDS011;5296;51.060;13.750;2022-12-18T03:16:21;14.00;;;10.17;;
10497;SDS011;5296;51.060;13.750;2022-12-18T03:21:29;14.53;;;9.90;;
10497;SDS011;5296;51.060;13.750;2022-12-18T03:26:35;15.13;;;9.23;;
10497;SDS011;5296;51.060;13.750;2022-12-18T03:31:40;15.63;;;10.13;;
10497;SDS011;5296;51.060;13.750;2022-12-18T03:36:43;14.40;;;9.60;;
10497;SDS011;5296;51.060;13.750;2022-12-18T03:41:51;14.37;;;9.40;;
10497;SDS011;5296;51.060;13.750;2022-12-18T03:47:15;13.90;;;9.87;;
10497;SDS011;5296;51.060;13.750;2022-12-18T03:52:30;14.87;;;9.30;;
10497;SDS011;5296;51.060;13.750;2022-12-18T03:57:41;12.97;;;9.20;;
10497;SDS011;5296;51.060;13.750;2022-12-18T04:02:45;14.67;;;9.43;;
10497;SDS011;5296;51.060;13.750;2022-12-18T04:07:56;15.77;;;9.90;;
10497;SDS011;5296;51.060;13.750;2022-12-18T04:12:59;15.70;;;9.27;;
10497;SDS011;5296;51.060;13.750;2022-12-18T04:18:01;12.90;;;8.97;;
10497;SDS011;5296;51.060;13.750;2022-12-18T04:23:10;12.93;;;8.63;;
10497;SDS011;5296;51.060;13.750;2022-12-18T04:28:13;13.57;;;9.63;;
10497;SDS011;5296;51.060;13.750;2022-12-18T04:33:14;14.60;;;9.60;;
10497;SDS011;5296;51.060;13.750;2022-12-18T04:38:16;13.53;;;9.63;;
10497;SDS011;5296;51.060;13.750;2022-12-18T04:43:22;14.63;;;8.97;;
10497;SDS011;5296;51.060;13.750;2022-12-18T04:48:23;13.87;;;8.87;;
10497;SDS011;5296;51.060;13.750;2022-12-18T04:53:25;14.23;;;9.47;;
10497;SDS011;5296;51.060;13.750;2022-12-18T04:58:27;14.17;;;9.87;;
10497;SDS011;5296;51.060;13.750;2022-12-18T05:03:29;11.23;;;7.73;;
10497;SDS011;5296;51.060;13.750;2022-12-18T05:08:31;12.40;;;8.37;;
10497;SDS011;5296;51.060;13.750;2022-12-18T05:13:33;14.40;;;8.70;;
10497;SDS011;5296;51.060;13.750;2022-12-18T05:18:36;11.17;;;7.60;;
10497;SDS011;5296;51.060;13.750;2022-12-18T05:23:38;13.93;;;8.03;;
10497;SDS011;5296;51.060;13.750;2022-12-18T05:28:40;11.73;;;7.60;;
10497;SDS011;5296;51.060;13.750;2022-12-18T05:33:42;13.37;;;7.80;;
10497;SDS011;5296;51.060;13.750;2022-12-18T05:38:45;12.27;;;8.37;;
10497;SDS011;5296;51.060;13.750;2022-12-18T05:43:47;11.73;;;8.83;;
10497;SDS011;5296;51.060;13.750;2022-12-18T05:48:49;14.63;;;9.50;;
10497;SDS011;5296;51.060;13.750;2022-12-18T05:53:52;13.00;;;8.97;;
10497;SDS011;5296;51.060;13.750;2022-12-18T05:58:53;13.87;;;8.93;;
10497;SDS011;5296;51.060;13.750;2022-12-18T06:03:55;12.27;;;8.73;;
10497;SDS011;5296;51.060;13.750;2022-12-18T06:08:57;14.43;;;9.50;;
10497;SDS011;5296;51.060;13.750;2022-12-18T06:13:59;14.90;;;8.93;;
10497;SDS011;5296;51.060;13.750;2022-12-18T06:19:02;14.97;;;9.13;;
10497;SDS011;5296;51.060;13.750;2022-12-18T06:24:05;14.73;;;9.53;;
10497;SDS011;5296;51.060;13.750;2022-12-18T06:29:07;12.17;;;8.23;;
10497;SDS011;5296;51.060;13.750;2022-12-18T06:34:08;13.33;;;8.77;;
10497;SDS011;5296;51.060;13.750;2022-12-18T06:39:10;15.13;;;8.77;;
10497;SDS011;5296;51.060;13.750;2022-12-18T06:44:11;13.87;;;8.40;;
10497;SDS011;5296;51.060;13.750;2022-12-18T06:49:14;13.23;;;7.93;;
10497;SDS011;5296;51.060;13.750;2022-12-18T06:54:17;14.30;;;8.63;;
10497;SDS011;5296;51.060;13.750;2022-12-18T06:59:18;12.30;;;8.57;;
10497;SDS011;5296;51.060;13.750;2022-12-18T07:04:20;10.83;;;7.60;;
10497;SDS011;5296;51.060;13.750;2022-12-18T07:09:22;13.83;;;8.50;;
10497;SDS011;5296;51.060;13.750;2022-12-18T07:14:23;12.63;;;8.50;;
10497;SDS011;5296;51.060;13.750;2022-12-18T07:19:25;13.07;;;7.73;;
10497;SDS011;5296;51.060;13.750;2022-12-18T07:24:27;16.30;;;8.57;;
10497;SDS011;5296;51.060;13.750;2022-12-18T07:29:29;13.50;;;9.47;;
10497;SDS011;5296;51.060;13.750;2022-12-18T07:34:30;15.07;;;9.37;;
10497;SDS011;5296;51.060;13.750;2022-12-18T07:39:32;14.40;;;8.87;;
10497;SDS011;5296;51.060;13.750;2022-12-18T07:44:34;14.43;;;9.07;;
10497;SDS011;5296;51.060;13.750;2022-12-18T07:49:35;12.57;;;9.00;;
10497;SDS011;5296;51.060;13.750;2022-12-18T07:54:37;13.10;;;8.87;;
10497;SDS011;5296;51.060;13.750;2022-12-18T07:59:40;14.90;;;9.60;;
10497;SDS011;5296;51.060;13.750;2022-12-18T08:04:41;15.73;;;9.43;;
10497;SDS011;5296;51.060;13.750;2022-12-18T08:09:43;16.23;;;10.57;;
10497;SDS011;5296;51.060;13.750;2022-12-18T08:14:45;16.23;;;10.03;;
10497;SDS011;5296;51.060;13.750;2022-12-18T08:19:46;13.93;;;9.37;;
10497;SDS011;5296;51.060;13.750;2022-12-18T08:24:48;16.63;;;9.67;;
10497;SDS011;5296;51.060;13.750;2022-12-18T08:29:50;16.67;;;10.80;;
10497;SDS011;5296;51.060;13.750;2022-12-18T08:34:51;14.90;;;10.30;;
10497;SDS011;5296;51.060;13.750;2022-12-18T08:39:53;15.70;;;10.60;;
10497;SDS011;5296;51.060;13.750;2022-12-18T08:44:55;20.97;;;12.70;;
10497;SDS011;5296;51.060;13.750;2022-12-18T08:49:56;20.13;;;11.97;;
10497;SDS011;5296;51.060;13.750;2022-12-18T08:54:58;20.83;;;12.33;;
10497;SDS011;5296;51.060;13.750;2022-12-18T08:59:59;21.50;;;13.33;;
10497;SDS011;5296;51.060;13.750;2022-12-18T09:05:01;21.70;;;13.93;;
10497;SDS011;5296;51.060;13.750;2022-12-18T09:10:03;21.37;;;12.87;;
10497;SDS011;5296;51.060;13.750;2022-12-18T09:15:05;19.40;;;12.27;;
10497;SDS011;5296;51.060;13.750;2022-12-18T09:20:07;20.00;;;12.60;;
10497;SDS011;5296;51.060;13.750;2022-12-18T09:25:09;21.93;;;13.80;;
10497;SDS011;5296;51.060;13.750;2022-12-18T09:30:11;19.60;;;13.23;;
10497;SDS011;5296;51.060;13.750;2022-12-18T09:35:13;23.60;;;14.70;;
10497;SDS011;5296;51.060;13.750;2022-12-18T09:40:16;24.47;;;14.80;;
10497;SDS011;5296;51.060;13.750;2022-12-18T09:45:19;24.40;;;15.53;;
10497;SDS011;5296;51.060;13.750;2022-12-18T09:55:34;27.40;;;15.00;;
10497;SDS011;5296;51.060;13.750;2022-12-18T10:00:38;24.97;;;15.20;;
10497;SDS011;5296;51.060;13.750;2022-12-18T10:05:46;28.63;;;16.07;;
10497;SDS011;5296;51.060;13.750;2022-12-18T10:11:16;24.20;;;14.20;;
10497;SDS011;5296;51.060;13.750;2022-12-18T10:16:47;26.83;;;13.67;;
10497;SDS011;5296;51.060;13.750;2022-12-18T10:27:47;24.90;;;14.33;;
10497;SDS011;5296;51.060;13.750;2022-12-18T10:32:49;25.33;;;14.57;;
10497;SDS011;5296;51.060;13.750;2022-12-18T10:38:19;23.40;;;14.63;;
10497;SDS011;5296;51.060;13.750;2022-12-18T10:48:28;23.67;;;13.93;;
10497;SDS011;5296;51.060;13.750;2022-12-18T10:53:30;22.87;;;14.77;;
10497;SDS011;5296;51.060;13.750;2022-12-18T10:58:34;24.47;;;14.53;;
10497;SDS011;5296;51.060;13.750;2022-12-18T11:03:44;23.93;;;14.23;;
10497;SDS011;5296;51.060;13.750;2022-12-18T11:24:36;22.63;;;14.43;;
10497;SDS011;5296;51.060;13.750;2022-12-18T11:29:39;23.90;;;14.47;;
10497;SDS011;5296;51.060;13.750;2022-12-18T11:34:48;23.50;;;13.90;;
10497;SDS011;5296;51.060;13.750;2022-12-18T11:40:00;24.97;;;14.47;;
10497;SDS011;5296;51.060;13.750;2022-12-18T11:50:37;30.60;;;14.33;;
10497;SDS011;5296;51.060;13.750;2022-12-18T12:17:24;22.73;;;13.50;;
10497;SDS011;5296;51.060;13.750;2022-12-18T12:22:52;23.27;;;13.80;;
10497;SDS011;5296;51.060;13.750;2022-12-18T12:33:39;21.47;;;13.27;;
10497;SDS011;5296;51.060;13.750;2022-12-18T12:39:05;22.13;;;13.13;;
10497;SDS011;5296;51.060;13.750;2022-12-18T12:44:30;26.40;;;14.83;;
10497;SDS011;5296;51.060;13.750;2022-12-18T12:49:35;28.27;;;14.77;;
10497;SDS011;5296;51.060;13.750;2022-12-18T12:54:41;22.00;;;13.23;;
10497;SDS011;5296;51.060;13.750;2022-12-18T12:59:52;20.93;;;13.97;;
10497;SDS011;5296;51.060;13.750;2022-12-18T13:15:13;20.40;;;13.20;;
10497;SDS011;5296;51.060;13.750;2022-12-18T13:20:22;22.03;;;13.30;;
10497;SDS011;5296;51.060;13.750;2022-12-18T13:25:36;20.00;;;12.87;;
10497;SDS011;5296;51.060;13.750;2022-12-18T13:30:45;25.40;;;14.27;;
10497;SDS011;5296;51.060;13.750;2022-12-18T13:36:17;24.30;;;13.83;;
10497;SDS011;5296;51.060;13.750;2022-12-18T13:41:27;21.33;;;13.83;;
10497;SDS011;5296;51.060;13.750;2022-12-18T13:46:42;25.10;;;14.77;;
10497;SDS011;5296;51.060;13.750;2022-12-18T13:51:48;22.00;;;13.33;;
10497;SDS011;5296;51.060;13.750;2022-12-18T13:56:54;22.10;;;13.90;;
10497;SDS011;5296;51.060;13.750;2022-12-18T14:01:57;18.43;;;11.73;;
10497;SDS011;5296;51.060;13.750;2022-12-18T14:07:19;20.93;;;11.73;;
10497;SDS011;5296;51.060;13.750;2022-12-18T14:12:25;18.37;;;11.43;;
10497;SDS011;5296;51.060;13.750;2022-12-18T14:17:52;19.00;;;10.97;;
10497;SDS011;5296;51.060;13.750;2022-12-18T14:22:56;18.67;;;11.27;;
10497;SDS011;5296;51.060;13.750;2022-12-18T14:28:08;18.17;;;11.47;;
10497;SDS011;5296;51.060;13.750;2022-12-18T14:33:13;16.43;;;11.03;;
10497;SDS011;5296;51.060;13.750;2022-12-18T14:43:17;18.83;;;11.37;;
10497;SDS011;5296;51.060;13.750;2022-12-18T14:48:20;20.00;;;10.87;;
10497;SDS011;5296;51.060;13.750;2022-12-18T14:53:47;19.50;;;11.73;;
10497;SDS011;5296;51.060;13.750;2022-12-18T14:58:56;19.10;;;11.37;;
10497;SDS011;5296;51.060;13.750;2022-12-18T15:03:59;17.20;;;11.03;;
10497;SDS011;5296;51.060;13.750;2022-12-18T15:09:03;18.67;;;11.40;;
10497;SDS011;5296;51.060;13.750;2022-12-18T15:19:35;20.53;;;12.03;;
10497;SDS011;5296;51.060;13.750;2022-12-18T15:24:40;22.30;;;12.83;;
10497;SDS011;5296;51.060;13.750;2022-12-18T15:29:41;21.90;;;12.17;;
10497;SDS011;5296;51.060;13.750;2022-12-18T15:34:43;18.57;;;12.10;;
10497;SDS011;5296;51.060;13.750;2022-12-18T15:39:45;17.57;;;11.27;;
10497;SDS011;5296;51.060;13.750;2022-12-18T15:44:46;19.77;;;12.17;;
10497;SDS011;5296;51.060;13.750;2022-12-18T15:49:48;21.07;;;11.93;;
10497;SDS011;5296;51.060;13.750;2022-12-18T15:54:50;18.33;;;11.47;;
10497;SDS011;5296;51.060;13.750;2022-12-18T16:00:11;20.47;;;11.97;;
10497;SDS011;5296;51.060;13.750;2022-12-18T16:05:14;18.47;;;11.77;;
10497;SDS011;5296;51.060;13.750;2022-12-18T16:10:16;21.37;;;12.60;;
10497;SDS011;5296;51.060;13.750;2022-12-18T16:15:18;20.10;;;12.97;;
10497;SDS011;5296;51.060;13.750;2022-12-18T16:20:25;21.50;;;12.23;;
10497;SDS011;5296;51.060;13.750;2022-12-18T16:25:27;19.70;;;12.37;;
10497;SDS011;5296;51.060;13.750;2022-12-18T16:30:30;22.50;;;12.97;;
10497;SDS011;5296;51.060;13.750;2022-12-18T16:35:39;21.10;;;12.30;;
10497;SDS011;5296;51.060;13.750;2022-12-18T16:40:40;20.57;;;12.27;;
10497;SDS011;5296;51.060;13.750;2022-12-18T16:46:02;22.00;;;12.60;;
10497;SDS011;5296;51.060;13.750;2022-12-18T16:51:04;21.13;;;12.67;;
10497;SDS011;5296;51.060;13.750;2022-12-18T16:56:06;19.07;;;12.00;;
10497;SDS011;5296;51.060;13.750;2022-12-18T17:01:08;21.07;;;12.30;;
10497;SDS011;5296;51.060;13.750;2022-12-18T17:06:11;19.63;;;12.03;;
10497;SDS011;5296;51.060;13.750;2022-12-18T17:11:13;22.00;;;12.90;;
10497;SDS011;5296;51.060;13.750;2022-12-18T17:16:14;20.23;;;12.17;;
10497;SDS011;5296;51.060;13.750;2022-12-18T17:21:18;21.73;;;13.50;;
10497;SDS011;5296;51.060;13.750;2022-12-18T17:26:20;20.83;;;12.20;;
10497;SDS011;5296;51.060;13.750;2022-12-18T17:31:22;22.53;;;12.90;;
10497;SDS011;5296;51.060;13.750;2022-12-18T17:36:25;18.77;;;12.17;;
10497;SDS011;5296;51.060;13.750;2022-12-18T17:41:32;19.70;;;12.10;;
10497;SDS011;5296;51.060;13.750;2022-12-18T17:46:34;19.07;;;12.20;;
10497;SDS011;5296;51.060;13.750;2022-12-18T17:51:36;21.20;;;12.03;;
10497;SDS011;5296;51.060;13.750;2022-12-18T17:56:38;18.67;;;11.90;;
10497;SDS011;5296;51.060;13.750;2022-12-18T18:01:39;21.03;;;13.40;;
10497;SDS011;5296;51.060;13.750;2022-12-18T18:06:45;18.23;;;11.57;;
10497;SDS011;5296;51.060;13.750;2022-12-18T18:11:47;20.27;;;12.60;;
10497;SDS011;5296;51.060;13.750;2022-12-18T18:17:08;18.93;;;10.70;;
10497;SDS011;5296;51.060;13.750;2022-12-18T18:22:09;17.60;;;11.07;;
10497;SDS011;5296;51.060;13.750;2022-12-18T18:27:11;17.77;;;10.70;;
10497;SDS011;5296;51.060;13.750;2022-12-18T18:32:12;16.83;;;10.63;;
10497;SDS011;5296;51.060;13.750;2022-12-18T18:37:14;19.43;;;10.57;;
10497;SDS011;5296;51.060;13.750;2022-12-18T18:42:16;15.80;;;10.77;;
10497;SDS011;5296;51.060;13.750;2022-12-18T18:47:17;16.53;;;10.40;;
10497;SDS011;5296;51.060;13.750;2022-12-18T18:52:19;17.93;;;11.00;;
10497;SDS011;5296;51.060;13.750;2022-12-18T18:57:21;15.13;;;10.20;;
10497;SDS011;5296;51.060;13.750;2022-12-18T19:02:30;19.60;;;11.47;;
10497;SDS011;5296;51.060;13.750;2022-12-18T19:07:32;17.07;;;10.63;;
10497;SDS011;5296;51.060;13.750;2022-12-18T19:12:33;16.27;;;10.60;;
10497;SDS011;5296;51.060;13.750;2022-12-18T19:17:55;21.40;;;12.27;;
10497;SDS011;5296;51.060;13.750;2022-12-18T19:22:56;21.60;;;11.63;;
10497;SDS011;5296;51.060;13.750;2022-12-18T19:27:58;17.70;;;11.33;;
10497;SDS011;5296;51.060;13.750;2022-12-18T19:33:00;20.17;;;11.33;;
10497;SDS011;5296;51.060;13.750;2022-12-18T19:38:21;19.10;;;11.67;;
10497;SDS011;5296;51.060;13.750;2022-12-18T19:43:23;19.20;;;11.10;;
10497;SDS011;5296;51.060;13.750;2022-12-18T19:48:25;21.03;;;12.00;;
10497;SDS011;5296;51.060;13.750;2022-12-18T19:53:26;20.37;;;12.30;;
10497;SDS011;5296;51.060;13.750;2022-12-18T19:58:28;21.37;;;11.83;;
10497;SDS011;5296;51.060;13.750;2022-12-18T20:03:30;23.53;;;11.83;;
10497;SDS011;5296;51.060;13.750;2022-12-18T20:08:45;18.27;;;10.70;;
10497;SDS011;5296;51.060;13.750;2022-12-18T20:13:47;18.87;;;11.10;;
10497;SDS011;5296;51.060;13.750;2022-12-18T20:18:49;19.70;;;12.07;;
10497;SDS011;5296;51.060;13.750;2022-12-18T20:23:52;18.83;;;11.23;;
10497;SDS011;5296;51.060;13.750;2022-12-18T20:28:56;16.87;;;11.27;;
10497;SDS011;5296;51.060;13.750;2022-12-18T20:33:57;19.40;;;11.23;;
10497;SDS011;5296;51.060;13.750;2022-12-18T20:39:02;17.67;;;11.63;;
10497;SDS011;5296;51.060;13.750;2022-12-18T20:44:08;21.37;;;11.40;;
10497;SDS011;5296;51.060;13.750;2022-12-18T20:49:24;20.03;;;11.33;;
10497;SDS011;5296;51.060;13.750;2022-12-18T20:54:27;18.67;;;10.80;;
10497;SDS011;5296;51.060;13.750;2022-12-18T20:59:29;19.23;;;11.30;;
10497;SDS011;5296;51.060;13.750;2022-12-18T21:04:31;17.87;;;11.10;;
10497;SDS011;5296;51.060;13.750;2022-12-18T21:09:32;17.37;;;11.17;;
10497;SDS011;5296;51.060;13.750;2022-12-18T21:14:38;19.20;;;11.27;;
10497;SDS011;5296;51.060;13.750;2022-12-18T21:19:40;20.60;;;11.80;;
10497;SDS011;5296;51.060;13.750;2022-12-18T21:24:42;20.30;;;12.33;;
10497;SDS011;5296;51.060;13.750;2022-12-18T21:29:44;22.13;;;12.73;;
10497;SDS011;5296;51.060;13.750;2022-12-18T21:34:47;22.17;;;12.47;;
10497;SDS011;5296;51.060;13.750;2022-12-18T21:39:49;19.60;;;12.37;;
10497;SDS011;5296;51.060;13.750;2022-12-18T21:44:51;20.93;;;12.80;;
10497;SDS011;5296;51.060;13.750;2022-12-18T21:49:52;20.43;;;12.80;;
10497;SDS011;5296;51.060;13.750;2022-12-18T21:54:54;20.50;;;12.83;;
10497;SDS011;5296;51.060;13.750;2022-12-18T21:59:56;21.90;;;14.10;;
10497;SDS011;5296;51.060;13.750;2022-12-18T22:04:57;23.77;;;14.00;;
10497;SDS011;5296;51.060;13.750;2022-12-18T22:09:59;22.90;;;14.53;;
10497;SDS011;5296;51.060;13.750;2022-12-18T22:15:03;24.10;;;14.70;;
10497;SDS011;5296;51.060;13.750;2022-12-18T22:20:05;24.80;;;14.57;;
10497;SDS011;5296;51.060;13.750;2022-12-18T22:25:09;25.53;;;14.77;;
10497;SDS011;5296;51.060;13.750;2022-12-18T22:30:11;25.43;;;15.23;;
10497;SDS011;5296;51.060;13.750;2022-12-18T22:35:14;25.13;;;16.13;;
10497;SDS011;5296;51.060;13.750;2022-12-18T22:40:17;25.53;;;15.17;;
10497;SDS011;5296;51.060;13.750;2022-12-18T22:45:26;26.27;;;15.67;;
10497;SDS011;5296;51.060;13.750;2022-12-18T22:50:28;25.17;;;15.73;;
10497;SDS011;5296;51.060;13.750;2022-12-18T22:55:30;23.43;;;16.07;;
10497;SDS011;5296;51.060;13.750;2022-12-18T23:00:31;22.97;;;14.50;;
10497;SDS011;5296;51.060;13.750;2022-12-18T23:05:33;23.37;;;15.37;;
10497;SDS011;5296;51.060;13.750;2022-12-18T23:10:36;28.50;;;16.00;;
10497;SDS011;5296;51.060;13.750;2022-12-18T23:15:41;26.37;;;15.53;;
10497;SDS011;5296;51.060;13.750;2022-12-18T23:20:43;23.37;;;14.43;;
10497;SDS011;5296;51.060;13.750;2022-12-18T23:25:46;25.00;;;15.00;;
10497;SDS011;5296;51.060;13.750;2022-12-18T23:30:48;24.60;;;14.93;;
10497;SDS011;5296;51.060;13.750;2022-12-18T23:35:50;23.27;;;15.20;;
10497;SDS011;5296;51.060;13.750;2022-12-18T23:40:52;23.97;;;15.57;;
10497;SDS011;5296;51.060;13.750;2022-12-18T23:45:57;26.47;;;16.13;;
10497;SDS011;5296;51.060;13.750;2022-12-18T23:51:03;25.17;;;15.63;;
10497;SDS011;5296;51.060;13.750;2022-12-18T23:56:08;26.37;;;16.13;;
